Time;durP1;ratioP1;P1;durP2;ratioP2;P2;SDS_P1;SDS_P2;PMS_P1;PMS_P2;Temp;Humidity;BMP_temperature;BMP_pressure;BME280_temperature;BME280_humidity;BME280_pressure;Samples;Min_cycle;Max_cycle;Signal;HPM_P1;HPM_P2
2024/01/10 00:02:03;;;;;;;37.13;20.17;;;-1.80;99.90;;;;;;5020449;28;20187;-41
2024/01/10 00:04:28;;;;;;;33.47;20.33;;;-1.80;99.90;;;;;;5023311;28;20770;-46
2024/01/10 00:06:55;;;;;;;34.17;21.37;;;-1.80;99.90;;;;;;5023563;28;20192;-48
2024/01/10 00:09:21;;;;;;;37.47;22.43;;;-1.80;99.90;;;;;;5023510;28;20632;-49
2024/01/10 00:11:47;;;;;;;34.10;20.47;;;-1.80;99.90;;;;;;5023418;28;20192;-50
2024/01/10 00:14:12;;;;;;;33.47;21.93;;;-1.80;99.90;;;;;;5018534;28;20662;-48
2024/01/10 00:16:38;;;;;;;35.57;20.53;;;-1.80;99.90;;;;;;5019059;28;20187;-51
2024/01/10 00:19:04;;;;;;;35.63;20.43;;;-1.80;99.90;;;;;;5023368;28;20605;-44
2024/01/10 00:21:30;;;;;;;35.77;21.67;;;-1.80;99.90;;;;;;5022887;28;20184;-46
2024/01/10 00:23:57;;;;;;;36.80;21.87;;;-1.80;99.90;;;;;;5022132;28;20192;-42
2024/01/10 00:26:23;;;;;;;34.27;21.10;;;-1.90;99.90;;;;;;5022917;28;20188;-47
2024/01/10 00:28:49;;;;;;;37.80;23.23;;;-1.90;99.90;;;;;;5014797;28;20203;-48
2024/01/10 00:31:14;;;;;;;36.40;21.70;;;-1.90;99.90;;;;;;5022946;28;20206;-49
2024/01/10 00:33:40;;;;;;;34.07;20.13;;;-1.90;99.90;;;;;;5022644;28;20211;-46
2024/01/10 00:36:06;;;;;;;38.13;22.70;;;-1.90;99.90;;;;;;5023024;28;20191;-45
2024/01/10 00:38:32;;;;;;;36.47;21.27;;;-2.00;99.90;;;;;;4998941;28;20216;-45
2024/01/10 00:40:59;;;;;;;37.97;23.80;;;-1.90;99.90;;;;;;5022632;28;20220;-41
2024/01/10 00:43:25;;;;;;;36.20;22.57;;;-2.00;99.90;;;;;;5022764;28;20671;-44
2024/01/10 00:45:51;;;;;;;37.37;20.43;;;-2.00;99.90;;;;;;5018719;28;21318;-42
2024/01/10 00:48:17;;;;;;;34.47;21.13;;;-2.00;99.90;;;;;;5018653;28;20207;-44
2024/01/10 00:50:44;;;;;;;36.73;21.60;;;-2.00;99.90;;;;;;5022946;28;20228;-51
2024/01/10 00:53:10;;;;;;;34.57;20.67;;;-2.00;99.90;;;;;;5017035;28;20229;-50
2024/01/10 00:55:36;;;;;;;38.13;20.50;;;-2.00;99.90;;;;;;5022839;28;20527;-46
2024/01/10 00:58:02;;;;;;;35.00;21.30;;;-2.00;99.90;;;;;;5022629;28;20204;-43
2024/01/10 01:00:28;;;;;;;33.87;19.70;;;-2.00;99.90;;;;;;5022462;28;20211;-48
2024/01/10 01:02:54;;;;;;;34.37;21.13;;;-2.00;99.90;;;;;;5022050;28;20238;-44
2024/01/10 01:05:19;;;;;;;30.87;19.67;;;-2.00;99.90;;;;;;5019659;28;20184;-46
2024/01/10 01:07:45;;;;;;;33.70;19.10;;;-2.00;99.90;;;;;;5015970;28;20203;-45
2024/01/10 01:10:11;;;;;;;28.80;17.80;;;-2.00;99.90;;;;;;5022198;28;20195;-40
2024/01/10 01:12:39;;;;;;;31.70;19.30;;;-2.00;99.90;;;;;;5021926;28;20656;-40
2024/01/10 01:15:05;;;;;;;28.20;16.57;;;-2.00;99.90;;;;;;5022136;28;20192;-46
2024/01/10 01:17:31;;;;;;;29.57;17.77;;;-2.00;99.90;;;;;;5005437;28;20572;-47
2024/01/10 01:19:57;;;;;;;27.93;17.13;;;-2.00;99.90;;;;;;5021844;28;20218;-49
2024/01/10 01:22:23;;;;;;;29.20;15.57;;;-2.00;99.90;;;;;;5021682;28;20218;-45
2024/01/10 01:24:49;;;;;;;30.97;18.10;;;-2.10;99.90;;;;;;5015212;28;20295;-45
2024/01/10 01:27:14;;;;;;;31.33;17.67;;;-2.10;99.90;;;;;;5021970;28;20691;-47
2024/01/10 01:29:40;;;;;;;30.70;18.60;;;-2.10;99.90;;;;;;5022117;28;20196;-44
2024/01/10 01:32:06;;;;;;;30.03;19.93;;;-2.10;99.90;;;;;;4981718;28;20226;-44
2024/01/10 01:34:32;;;;;;;34.97;19.37;;;-2.10;99.90;;;;;;5004705;28;20543;-48
2024/01/10 01:36:58;;;;;;;31.90;21.00;;;-2.10;99.90;;;;;;5022040;28;20748;-40
2024/01/10 01:39:24;;;;;;;32.83;20.83;;;-2.20;99.90;;;;;;5021403;28;20266;-44
2024/01/10 01:41:50;;;;;;;39.20;22.27;;;-2.20;99.90;;;;;;5021636;28;20271;-44
2024/01/10 01:44:15;;;;;;;35.93;21.77;;;-2.20;99.90;;;;;;5021882;28;20694;-47
2024/01/10 01:46:41;;;;;;;41.40;22.73;;;-2.20;99.90;;;;;;5021920;28;20640;-49
2024/01/10 01:49:07;;;;;;;40.70;24.13;;;-2.20;99.90;;;;;;5017253;28;20200;-45
2024/01/10 01:51:37;;;;;;;39.77;23.80;;;-2.20;99.90;;;;;;5021555;28;20231;-48
2024/01/10 01:54:08;;;;;;;42.10;25.70;;;-2.30;99.90;;;;;;5021422;28;20192;-46
2024/01/10 01:56:35;;;;;;;48.20;25.17;;;-2.30;99.90;;;;;;5021147;28;20687;-47
2024/01/10 01:59:03;;;;;;;45.40;28.13;;;-2.30;99.90;;;;;;5021582;28;20234;-45
2024/01/10 02:01:29;;;;;;;41.67;26.13;;;-2.30;99.90;;;;;;5021174;28;20671;-44
2024/01/10 02:03:56;;;;;;;49.03;26.00;;;-2.30;99.90;;;;;;5019464;28;20215;-41
2024/01/10 02:06:22;;;;;;;47.67;27.57;;;-2.40;99.90;;;;;;5021326;28;21137;-47
2024/01/10 02:08:48;;;;;;;51.13;28.00;;;-2.40;99.90;;;;;;5021401;28;20263;-47
2024/01/10 02:11:13;;;;;;;45.33;25.67;;;-2.40;99.90;;;;;;5021244;28;20188;-47
2024/01/10 02:13:40;;;;;;;43.53;25.97;;;-2.40;99.90;;;;;;5020832;28;20188;-50
2024/01/10 02:16:07;;;;;;;44.63;26.13;;;-2.50;99.90;;;;;;5021274;28;20195;-41
2024/01/10 02:18:34;;;;;;;53.13;27.27;;;-2.50;99.90;;;;;;5020532;28;20209;-44
2024/01/10 02:21:01;;;;;;;48.27;27.23;;;-2.50;99.90;;;;;;5021075;28;20715;-45
2024/01/10 02:23:27;;;;;;;45.93;27.10;;;-2.50;99.90;;;;;;5021186;28;20180;-49
2024/01/10 02:25:53;;;;;;;49.30;27.17;;;-2.50;99.90;;;;;;5021383;28;21058;-48
2024/01/10 02:28:19;;;;;;;49.63;26.43;;;-2.50;99.90;;;;;;5021440;28;20188;-42
2024/01/10 02:30:44;;;;;;;46.03;25.97;;;-2.50;99.90;;;;;;4998798;28;20191;-48
2024/01/10 02:33:10;;;;;;;51.47;27.80;;;-2.50;99.90;;;;;;5020986;28;20339;-45
2024/01/10 02:35:36;;;;;;;48.43;29.77;;;-2.50;99.90;;;;;;5017763;28;20198;-48
2024/01/10 02:38:04;;;;;;;46.20;26.67;;;-2.60;99.90;;;;;;5020906;28;20191;-47
2024/01/10 02:40:30;;;;;;;50.97;29.97;;;-2.50;99.90;;;;;;5021301;28;20695;-47
2024/01/10 02:42:55;;;;;;;43.20;24.10;;;-2.60;99.90;;;;;;5020410;28;20298;-45
2024/01/10 02:45:21;;;;;;;42.90;24.07;;;-2.50;99.90;;;;;;5021272;28;20192;-45
2024/01/10 02:47:47;;;;;;;45.93;24.93;;;-2.60;99.90;;;;;;5020617;28;20195;-49
2024/01/10 02:50:13;;;;;;;49.07;29.23;;;-2.60;99.90;;;;;;5020628;28;20219;-47
2024/01/10 02:52:39;;;;;;;48.63;24.37;;;-2.60;99.90;;;;;;5015124;28;20192;-41
2024/01/10 02:55:06;;;;;;;46.83;29.70;;;-2.60;99.90;;;;;;5018333;28;20265;-43
2024/01/10 02:57:32;;;;;;;46.97;26.10;;;-2.60;99.90;;;;;;5015545;28;20261;-43
2024/01/10 02:59:58;;;;;;;50.57;29.20;;;-2.60;99.90;;;;;;5017909;28;20211;-51
2024/01/10 03:02:24;;;;;;;49.60;29.97;;;-2.60;99.90;;;;;;5020460;28;20271;-45
2024/01/10 03:04:50;;;;;;;42.97;25.07;;;-2.60;99.90;;;;;;5013684;28;20276;-44
2024/01/10 03:07:16;;;;;;;43.57;23.97;;;-2.60;99.90;;;;;;5020686;28;20315;-46
2024/01/10 03:09:42;;;;;;;49.83;28.63;;;-2.60;99.90;;;;;;5016785;28;20601;-44
2024/01/10 03:12:10;;;;;;;47.00;28.13;;;-2.60;99.90;;;;;;5020641;28;20191;-41
2024/01/10 03:14:36;;;;;;;44.53;26.90;;;-2.60;99.90;;;;;;5003918;28;20274;-50
2024/01/10 03:17:02;;;;;;;47.47;26.33;;;-2.60;99.90;;;;;;5020794;28;20295;-42
2024/01/10 03:19:28;;;;;;;44.13;26.87;;;-2.60;99.90;;;;;;5014853;28;20246;-47
2024/01/10 03:21:54;;;;;;;46.57;27.03;;;-2.60;99.90;;;;;;5013235;28;20847;-45
2024/01/10 03:24:20;;;;;;;44.47;26.03;;;-2.50;99.90;;;;;;5015610;28;20957;-50
2024/01/10 03:26:46;;;;;;;42.70;25.47;;;-2.50;99.90;;;;;;5020886;28;20184;-45
2024/01/10 03:29:12;;;;;;;45.33;25.60;;;-2.60;99.90;;;;;;5020815;28;20563;-44
2024/01/10 03:31:37;;;;;;;45.77;26.53;;;-2.60;99.90;;;;;;5023571;28;21330;-45
2024/01/10 03:34:03;;;;;;;45.33;25.13;;;-2.60;99.90;;;;;;5018161;28;20211;-41
2024/01/10 03:36:29;;;;;;;41.50;23.27;;;-2.60;99.90;;;;;;5023954;28;20198;-47
2024/01/10 03:38:55;;;;;;;46.57;25.03;;;-2.60;99.90;;;;;;5024180;28;20208;-50
2024/01/10 03:41:21;;;;;;;41.60;25.13;;;-2.60;99.90;;;;;;5023916;28;20697;-45
2024/01/10 03:43:47;;;;;;;44.13;26.20;;;-2.50;99.90;;;;;;5023989;28;20184;-47
2024/01/10 03:46:14;;;;;;;43.57;25.83;;;-2.60;99.90;;;;;;5023981;28;20194;-47
2024/01/10 03:48:47;;;;;;;43.80;26.90;;;-2.50;99.90;;;;;;5023680;28;20204;-47
2024/01/10 03:51:14;;;;;;;46.07;27.20;;;-2.50;99.90;;;;;;5023715;28;20285;-46
2024/01/10 03:53:40;;;;;;;51.73;28.53;;;-2.50;99.90;;;;;;5023608;28;20207;-45
2024/01/10 03:56:07;;;;;;;50.77;27.33;;;-2.50;99.90;;;;;;5023959;28;20219;-49
2024/01/10 03:58:32;;;;;;;49.97;26.30;;;-2.50;99.90;;;;;;5020263;28;20199;-46
2024/01/10 04:00:58;;;;;;;48.97;29.27;;;-2.50;99.90;;;;;;5023168;28;21071;-46
2024/01/10 04:03:25;;;;;;;50.83;28.43;;;-2.50;99.90;;;;;;5023525;28;20191;-44
2024/01/10 04:05:50;;;;;;;51.63;28.10;;;-2.50;99.90;;;;;;5023316;28;20195;-45
2024/01/10 04:08:19;;;;;;;49.47;28.93;;;-2.50;99.90;;;;;;5023904;28;20181;-46
2024/01/10 04:10:45;;;;;;;48.63;29.50;;;-2.50;99.90;;;;;;5023367;28;20192;-45
2024/01/10 04:13:11;;;;;;;46.83;27.63;;;-2.50;99.90;;;;;;5021856;28;20192;-49
2024/01/10 04:15:37;;;;;;;46.23;26.60;;;-2.50;99.90;;;;;;5022393;28;20192;-50
2024/01/10 04:18:03;;;;;;;46.87;25.70;;;-2.50;99.90;;;;;;5023108;28;20187;-47
2024/01/10 04:20:29;;;;;;;48.50;28.40;;;-2.50;99.90;;;;;;5017724;28;20216;-45
2024/01/10 04:22:55;;;;;;;47.53;28.20;;;-2.50;99.90;;;;;;5022716;28;20202;-45
2024/01/10 04:25:21;;;;;;;44.77;27.47;;;-2.60;99.90;;;;;;5023275;28;20180;-43
2024/01/10 04:27:46;;;;;;;48.37;27.43;;;-2.60;99.90;;;;;;5005776;28;20358;-43
2024/01/10 04:30:12;;;;;;;50.03;28.80;;;-2.60;99.90;;;;;;5022999;28;20203;-42
2024/01/10 04:32:38;;;;;;;48.90;28.20;;;-2.60;99.90;;;;;;5022659;28;20283;-46
2024/01/10 04:35:04;;;;;;;47.30;28.63;;;-2.60;99.90;;;;;;5013822;28;20275;-50
2024/01/10 04:37:30;;;;;;;47.83;26.77;;;-2.60;99.90;;;;;;5023166;28;20192;-47
2024/01/10 04:39:56;;;;;;;46.95;26.40;;;-2.60;99.90;;;;;;5017774;28;20221;-42
2024/01/10 04:42:22;;;;;;;48.50;27.73;;;-2.60;99.90;;;;;;5022765;28;20207;-50
2024/01/10 04:44:49;;;;;;;47.67;26.43;;;-2.60;99.90;;;;;;5022912;28;20186;-52
2024/01/10 04:47:15;;;;;;;48.10;27.07;;;-2.60;99.90;;;;;;5022104;28;20758;-46
2024/01/10 04:49:41;;;;;;;44.43;26.70;;;-2.60;99.90;;;;;;5022872;28;20192;-48
2024/01/10 04:52:07;;;;;;;49.53;28.93;;;-2.60;99.90;;;;;;5022719;28;20222;-44
2024/01/10 04:54:34;;;;;;;48.17;28.10;;;-2.60;99.90;;;;;;5022316;28;20192;-45
2024/01/10 04:56:59;;;;;;;43.77;25.87;;;-2.60;99.90;;;;;;5022802;28;20207;-45
2024/01/10 04:59:25;;;;;;;46.43;24.33;;;-2.60;99.90;;;;;;5022088;28;20242;-47
2024/01/10 05:01:51;;;;;;;43.60;24.87;;;-2.60;99.90;;;;;;5022913;28;20374;-46
2024/01/10 05:04:17;;;;;;;40.30;25.47;;;-2.60;99.90;;;;;;5022047;28;20261;-42
2024/01/10 05:06:43;;;;;;;36.30;22.40;;;-2.50;99.90;;;;;;5022473;28;20599;-48
2024/01/10 05:09:09;;;;;;;39.70;24.83;;;-2.50;99.90;;;;;;5017176;28;20196;-49
2024/01/10 05:11:36;;;;;;;37.73;22.93;;;-2.60;99.90;;;;;;5019771;28;20192;-46
2024/01/10 05:14:03;;;;;;;35.17;21.53;;;-2.50;99.90;;;;;;5021770;28;20195;-45
2024/01/10 05:16:29;;;;;;;36.17;22.03;;;-2.50;99.90;;;;;;5021861;28;20638;-43
2024/01/10 05:18:55;;;;;;;33.33;19.70;;;-2.50;99.90;;;;;;5022489;28;20196;-44
2024/01/10 05:21:21;;;;;;;34.13;21.03;;;-2.50;99.90;;;;;;5015793;28;20203;-43
2024/01/10 05:23:47;;;;;;;35.63;20.43;;;-2.50;99.90;;;;;;5022260;28;20669;-47
2024/01/10 05:26:13;;;;;;;33.93;21.63;;;-2.50;99.90;;;;;;5022037;28;20271;-44
2024/01/10 05:28:39;;;;;;;34.07;20.37;;;-2.50;99.90;;;;;;5022003;28;20257;-45
2024/01/10 05:31:05;;;;;;;33.17;20.17;;;-2.40;99.90;;;;;;5022348;28;20318;-49
2024/01/10 05:33:30;;;;;;;34.27;19.73;;;-2.40;99.90;;;;;;5014968;28;20200;-50
2024/01/10 05:35:58;;;;;;;30.87;19.83;;;-2.40;99.90;;;;;;5019055;28;20249;-48
2024/01/10 05:38:24;;;;;;;35.90;20.93;;;-2.40;99.90;;;;;;5016376;28;20198;-45
2024/01/10 05:40:51;;;;;;;37.77;21.67;;;-2.40;99.90;;;;;;5021289;28;20219;-44
2024/01/10 05:43:17;;;;;;;36.13;20.77;;;-2.40;99.90;;;;;;5021750;28;20192;-44
2024/01/10 05:45:43;;;;;;;35.37;21.17;;;-2.40;99.90;;;;;;5021325;28;20314;-47
2024/01/10 05:48:08;;;;;;;35.03;21.00;;;-2.40;99.90;;;;;;5021674;28;20187;-46
2024/01/10 05:50:34;;;;;;;35.40;22.20;;;-2.40;99.90;;;;;;5017083;28;20235;-45
2024/01/10 05:53:00;;;;;;;38.63;20.77;;;-2.40;99.90;;;;;;5013363;28;20279;-45
2024/01/10 05:55:26;;;;;;;41.57;22.53;;;-2.40;99.90;;;;;;5021501;28;20278;-49
2024/01/10 05:57:52;;;;;;;39.87;23.87;;;-2.40;99.90;;;;;;5021237;28;20204;-48
2024/01/10 06:00:20;;;;;;;36.43;20.20;;;-2.40;99.90;;;;;;5018264;28;20203;-50
2024/01/10 06:02:45;;;;;;;37.77;23.50;;;-2.40;99.90;;;;;;5021356;28;20190;-46
2024/01/10 06:05:12;;;;;;;39.47;23.00;;;-2.40;99.90;;;;;;5021445;28;20584;-43
2024/01/10 06:07:41;;;;;;;39.47;22.80;;;-2.40;99.90;;;;;;5016633;28;20180;-46
2024/01/10 06:10:07;;;;;;;37.57;21.93;;;-2.40;99.90;;;;;;5020865;28;20266;-47
2024/01/10 06:12:33;;;;;;;40.33;25.03;;;-2.40;99.90;;;;;;5016913;28;20202;-42
2024/01/10 06:14:59;;;;;;;40.50;24.27;;;-2.40;99.90;;;;;;5016566;28;20567;-49
2024/01/10 06:17:24;;;;;;;39.93;24.30;;;-2.50;99.90;;;;;;5020951;28;20203;-48
2024/01/10 06:19:51;;;;;;;40.20;25.57;;;-2.50;99.90;;;;;;5021314;28;20216;-48
2024/01/10 06:22:17;;;;;;;44.13;24.70;;;-2.50;99.90;;;;;;5020841;28;20675;-46
2024/01/10 06:24:44;;;;;;;47.63;27.00;;;-2.50;99.90;;;;;;5021157;28;20184;-46
2024/01/10 06:27:10;;;;;;;44.57;27.70;;;-2.60;99.90;;;;;;5020475;28;20191;-44
2024/01/10 06:29:36;;;;;;;43.17;26.17;;;-2.50;99.90;;;;;;5021464;28;20187;-47
2024/01/10 06:32:06;;;;;;;43.57;27.23;;;-2.60;99.90;;;;;;5021183;28;21011;-43
2024/01/10 06:34:32;;;;;;;47.07;27.60;;;-2.60;99.90;;;;;;5021230;28;20939;-49
2024/01/10 06:36:58;;;;;;;47.07;23.90;;;-2.60;99.90;;;;;;5017446;28;20305;-49
2024/01/10 06:39:24;;;;;;;39.37;22.63;;;-2.60;99.90;;;;;;5020664;28;20289;-49
2024/01/10 06:41:50;;;;;;;44.20;22.93;;;-2.70;99.90;;;;;;5020732;28;20256;-41
2024/01/10 06:44:19;;;;;;;38.80;23.33;;;-2.60;99.90;;;;;;5020650;28;20184;-44
2024/01/10 06:46:45;;;;;;;38.33;22.63;;;-2.70;99.90;;;;;;5021200;28;20658;-39
2024/01/10 06:49:12;;;;;;;41.17;23.80;;;-2.70;99.90;;;;;;5020663;28;20272;-47
2024/01/10 06:51:38;;;;;;;44.30;25.63;;;-2.70;99.90;;;;;;5020599;28;20231;-42
2024/01/10 06:54:05;;;;;;;46.40;28.07;;;-2.70;99.90;;;;;;5018509;28;20191;-47
2024/01/10 06:56:34;;;;;;;46.77;28.83;;;-2.70;99.90;;;;;;5016558;28;20207;-43
2024/01/10 06:59:01;;;;;;;43.87;25.87;;;-2.70;99.90;;;;;;5016865;28;20231;-44
2024/01/10 07:01:27;;;;;;;46.67;27.70;;;-2.60;99.90;;;;;;5020610;28;20213;-43
2024/01/10 07:03:57;;;;;;;42.83;26.02;;;-2.60;99.90;;;;;;5020745;28;20373;-43
2024/01/10 07:06:23;;;;;;;45.33;27.00;;;-2.60;99.90;;;;;;5004573;28;20570;-44
2024/01/10 07:08:50;;;;;;;44.57;27.97;;;-2.60;99.90;;;;;;4988145;28;20222;-49
2024/01/10 07:11:17;;;;;;;42.43;26.53;;;-2.60;99.90;;;;;;5021451;28;20188;-41
2024/01/10 07:13:43;;;;;;;46.37;25.83;;;-2.60;99.90;;;;;;5023935;28;20195;-42
2024/01/10 07:16:10;;;;;;;39.60;24.37;;;-2.60;99.90;;;;;;5024198;28;20259;-48
2024/01/10 07:18:36;;;;;;;42.53;26.57;;;-2.60;99.90;;;;;;5024140;28;20643;-43
2024/01/10 07:21:02;;;;;;;44.57;26.10;;;-2.60;99.90;;;;;;5020189;28;20204;-45
2024/01/10 07:23:28;;;;;;;41.73;26.13;;;-2.60;99.90;;;;;;5023746;28;20215;-48
2024/01/10 07:25:54;;;;;;;45.53;23.40;;;-2.60;99.90;;;;;;5018946;28;20183;-51
2024/01/10 07:28:20;;;;;;;41.37;24.43;;;-2.50;99.90;;;;;;5023683;28;20215;-42
2024/01/10 07:30:46;;;;;;;42.57;25.40;;;-2.50;99.90;;;;;;5001490;28;21083;-43
2024/01/10 07:33:12;;;;;;;39.17;22.20;;;-2.50;99.90;;;;;;5023754;28;20565;-42
2024/01/10 07:35:38;;;;;;;35.20;20.60;;;-2.50;99.90;;;;;;5015181;28;20184;-47
2024/01/10 07:38:08;;;;;;;34.23;20.10;;;-2.50;99.90;;;;;;4999491;28;20283;-53
2024/01/10 07:40:34;;;;;;;36.00;21.60;;;-2.40;99.90;;;;;;5007995;28;20730;-47
2024/01/10 07:43:00;;;;;;;35.83;18.33;;;-2.50;99.90;;;;;;5023255;28;20240;-45
2024/01/10 07:45:27;;;;;;;34.17;18.40;;;-2.50;99.90;;;;;;5023422;28;20273;-50
2024/01/10 07:47:53;;;;;;;37.37;20.30;;;-2.40;99.90;;;;;;5023572;28;20184;-48
2024/01/10 07:50:19;;;;;;;33.73;18.47;;;-2.40;99.90;;;;;;5022442;28;20259;-46
2024/01/10 07:52:48;;;;;;;35.70;19.60;;;-2.40;99.90;;;;;;4984341;28;20346;-47
2024/01/10 07:55:14;;;;;;;37.03;19.17;;;-2.40;99.90;;;;;;5023341;28;20263;-43
2024/01/10 07:57:42;;;;;;;33.37;18.87;;;-2.40;99.90;;;;;;5023524;28;20274;-46
2024/01/10 08:00:12;;;;;;;29.10;15.63;;;-2.30;99.90;;;;;;5022464;28;20223;-44
2024/01/10 08:02:38;;;;;;;35.17;19.20;;;-2.30;99.90;;;;;;5023387;28;20202;-43
2024/01/10 08:05:05;;;;;;;33.50;18.43;;;-2.30;99.90;;;;;;5017960;28;20188;-42
2024/01/10 08:07:36;;;;;;;37.80;22.17;;;-2.30;99.90;;;;;;5001759;28;20286;-49
2024/01/10 08:10:10;;;;;;;40.50;22.67;;;-2.30;99.90;;;;;;5018384;28;20200;-44
2024/01/10 08:12:38;;;;;;;38.17;22.80;;;-2.30;99.90;;;;;;4984726;28;20596;-41
2024/01/10 08:15:06;;;;;;;41.67;23.57;;;-2.30;99.90;;;;;;5004897;28;20196;-47
2024/01/10 08:17:33;;;;;;;41.27;24.90;;;-2.20;99.90;;;;;;5018660;28;20249;-48
2024/01/10 08:20:00;;;;;;;47.63;27.10;;;-2.20;99.90;;;;;;5022965;28;20227;-48
2024/01/10 08:22:26;;;;;;;45.43;27.03;;;-2.20;99.90;;;;;;5020971;28;20282;-46
2024/01/10 08:24:52;;;;;;;45.97;23.40;;;-2.20;99.90;;;;;;5020982;28;20182;-48
2024/01/10 08:27:18;;;;;;;45.90;25.13;;;-2.20;99.90;;;;;;5022588;28;20206;-54
2024/01/10 08:29:44;;;;;;;45.30;24.37;;;-2.20;99.90;;;;;;5023151;28;20203;-53
2024/01/10 08:32:11;;;;;;;46.65;26.77;;;-2.30;99.90;;;;;;5022981;28;20191;-44
2024/01/10 08:34:37;;;;;;;48.10;24.87;;;-2.30;99.90;;;;;;4963970;28;20231;-50
2024/01/10 08:37:03;;;;;;;51.27;26.07;;;-2.30;99.90;;;;;;5022836;28;20219;-48
2024/01/10 08:39:30;;;;;;;50.97;25.00;;;-2.30;99.90;;;;;;5016384;28;20740;-47
2024/01/10 08:41:57;;;;;;;51.07;24.43;;;-2.30;99.90;;;;;;5021116;28;20267;-45
2024/01/10 08:44:23;;;;;;;49.33;25.53;;;-2.30;99.90;;;;;;5018457;28;20204;-46
2024/01/10 08:46:51;;;;;;;49.27;23.93;;;-2.30;99.90;;;;;;5022505;28;20180;-42
2024/01/10 08:49:17;;;;;;;52.93;25.23;;;-2.30;99.90;;;;;;4985048;28;20192;-44
2024/01/10 08:51:44;;;;;;;47.50;21.83;;;-2.20;99.90;;;;;;5021728;28;20242;-48
2024/01/10 08:54:12;;;;;;;47.23;22.80;;;-2.30;99.90;;;;;;5018761;28;20619;-49
2024/01/10 08:56:38;;;;;;;50.27;23.10;;;-2.20;99.90;;;;;;5003086;28;20283;-45
2024/01/10 08:59:04;;;;;;;52.60;25.73;;;-2.20;99.90;;;;;;5022069;28;21030;-50
2024/01/10 09:01:30;;;;;;;49.80;21.30;;;-2.20;99.90;;;;;;4998540;28;20681;-46
2024/01/10 09:03:56;;;;;;;50.50;22.90;;;-2.20;99.90;;;;;;5021820;28;20184;-44
2024/01/10 09:06:22;;;;;;;48.90;21.80;;;-2.20;99.90;;;;;;5017275;28;20198;-49
2024/01/10 09:08:48;;;;;;;48.40;21.30;;;-2.20;99.90;;;;;;5021496;28;20202;-44
2024/01/10 09:11:14;;;;;;;46.43;20.93;;;-2.10;99.90;;;;;;5022222;28;20296;-50
2024/01/10 09:13:40;;;;;;;49.00;21.90;;;-2.10;99.90;;;;;;5018641;28;20188;-52
2024/01/10 09:16:06;;;;;;;47.63;21.57;;;-2.10;99.90;;;;;;5021752;28;20191;-42
2024/01/10 09:18:32;;;;;;;44.97;22.17;;;-2.00;99.90;;;;;;5021930;28;20200;-44
2024/01/10 09:20:58;;;;;;;47.53;21.10;;;-2.00;99.90;;;;;;5014467;28;20226;-43
2024/01/10 09:23:24;;;;;;;49.50;20.40;;;-2.00;99.90;;;;;;5021736;28;20198;-45
2024/01/10 09:25:50;;;;;;;52.50;22.47;;;-1.90;99.90;;;;;;5021581;28;20266;-45
2024/01/10 09:28:15;;;;;;;43.27;20.57;;;-1.80;99.90;;;;;;5020852;28;20991;-44
2024/01/10 09:30:41;;;;;;;44.37;20.77;;;-1.80;99.90;;;;;;5018545;28;20184;-41
2024/01/10 09:33:07;;;;;;;48.37;21.10;;;-1.80;99.90;;;;;;5019086;28;20719;-48
2024/01/10 09:35:33;;;;;;;39.73;18.67;;;-1.70;99.90;;;;;;5017085;28;20196;-45
2024/01/10 09:38:00;;;;;;;45.27;19.63;;;-1.70;99.90;;;;;;5021578;28;20192;-47
2024/01/10 09:40:28;;;;;;;39.83;19.08;;;-1.60;99.90;;;;;;5020694;28;20208;-47
2024/01/10 09:42:54;;;;;;;44.13;19.47;;;-1.60;99.90;;;;;;5021011;28;20655;-40
2024/01/10 09:45:22;;;;;;;43.13;19.47;;;-1.50;99.90;;;;;;5021085;28;20184;-46
2024/01/10 09:47:53;;;;;;;40.93;18.10;;;-1.50;99.90;;;;;;5012240;28;20570;-42
2024/01/10 09:50:19;;;;;;;36.45;17.95;;;-1.40;99.90;;;;;;5000786;28;20285;-47
2024/01/10 09:52:52;;;;;;;38.15;17.08;;;-1.40;99.90;;;;;;5011628;28;20203;-41
2024/01/10 09:55:22;;;;;;;38.50;16.77;;;-1.30;99.90;;;;;;5021075;28;20180;-47
2024/01/10 09:57:48;;;;;;;29.77;13.98;;;-1.20;99.90;;;;;;5020366;28;20554;-46
2024/01/10 10:00:16;;;;;;;38.03;17.38;;;-1.20;99.90;;;;;;5021391;28;20219;-47
2024/01/10 10:02:42;;;;;;;36.97;17.10;;;-1.20;99.90;;;;;;5021146;28;20304;-52
2024/01/10 10:05:12;;;;;;;34.38;16.30;;;-1.10;99.90;;;;;;5021350;28;20210;-49
2024/01/10 10:07:49;;;;;;;32.33;15.87;;;-1.10;99.90;;;;;;5020954;28;20267;-49
2024/01/10 10:10:16;;;;;;;31.27;15.88;;;-1.00;99.90;;;;;;5016262;28;20618;-46
2024/01/10 10:12:43;;;;;;;34.38;15.65;;;-1.00;99.90;;;;;;5020426;28;20273;-49
2024/01/10 10:15:18;;;;;;;30.85;13.45;;;-1.00;99.90;;;;;;5021265;28;20590;-48
2024/01/10 10:17:47;;;;;;;34.92;15.95;;;-0.90;99.90;;;;;;5020931;28;20746;-43
2024/01/10 10:20:36;;;;;;;28.77;14.20;;;-0.90;99.90;;;;;;5021194;28;20251;-47
2024/01/10 10:23:07;;;;;;;27.98;13.65;;;-0.80;99.90;;;;;;5020782;28;21193;-43
2024/01/10 10:25:35;;;;;;;31.17;14.55;;;-0.70;99.90;;;;;;5013522;28;20192;-45
2024/01/10 10:28:03;;;;;;;24.45;12.27;;;-0.60;99.90;;;;;;5021252;28;21349;-46
2024/01/10 10:30:31;;;;;;;26.35;12.55;;;-0.60;99.90;;;;;;5019556;28;20196;-48
2024/01/10 10:32:57;;;;;;;28.85;13.20;;;-0.60;99.90;;;;;;5020252;28;20513;-47
2024/01/10 10:35:23;;;;;;;24.80;12.75;;;-0.50;99.90;;;;;;5019582;28;20183;-53
2024/01/10 10:37:50;;;;;;;27.55;11.95;;;-0.50;99.90;;;;;;5019943;28;20188;-46
2024/01/10 10:40:18;;;;;;;20.00;10.65;;;-0.50;99.90;;;;;;4999775;28;20257;-44
2024/01/10 10:42:49;;;;;;;23.92;12.20;;;-0.40;99.90;;;;;;5023767;28;20229;-50
2024/01/10 10:45:17;;;;;;;22.42;11.35;;;-0.40;99.90;;;;;;5023268;28;20258;-43
2024/01/10 10:47:49;;;;;;;24.45;11.80;;;-0.30;99.90;;;;;;5024979;28;20677;-44
2024/01/10 10:50:22;;;;;;;23.02;11.43;;;-0.30;99.90;;;;;;5025043;28;20722;-42
2024/01/10 10:52:51;;;;;;;22.63;11.63;;;-0.30;99.90;;;;;;5023847;28;20930;-50
2024/01/10 10:55:19;;;;;;;23.95;11.30;;;-0.30;99.90;;;;;;5024199;28;20302;-48
2024/01/10 10:57:48;;;;;;;22.13;11.23;;;-0.30;99.90;;;;;;5023719;28;20271;-46
2024/01/10 11:00:16;;;;;;;21.98;11.57;;;-0.30;99.90;;;;;;5023611;28;20220;-46
2024/01/10 11:02:45;;;;;;;22.67;11.90;;;-0.20;99.90;;;;;;5020303;28;20235;-44
2024/01/10 11:05:11;;;;;;;19.95;10.02;;;-0.20;99.90;;;;;;5002913;28;20338;-46
2024/01/10 11:07:43;;;;;;;21.77;11.18;;;-0.20;99.90;;;;;;5019107;28;20186;-43
2024/01/10 11:10:33;;;;;;;19.67;9.95;;;-0.10;99.90;;;;;;5024669;28;20196;-43
2024/01/10 11:13:18;;;;;;;21.08;10.45;;;-0.10;99.90;;;;;;5018034;28;20195;-44
2024/01/10 11:16:09;;;;;;;20.73;10.20;;;0.00;99.90;;;;;;5024690;28;20211;-49
2024/01/10 11:18:47;;;;;;;24.50;10.50;;;0.00;99.90;;;;;;5024420;28;20191;-50
2024/01/10 11:21:27;;;;;;;18.88;9.50;;;0.10;99.90;;;;;;5023853;28;20662;-44
2024/01/10 11:23:57;;;;;;;22.85;10.77;;;0.10;99.90;;;;;;5024425;28;20196;-42
2024/01/10 11:26:24;;;;;;;22.08;10.38;;;0.10;99.90;;;;;;5024394;28;20275;-48
2024/01/10 11:28:50;;;;;;;24.15;11.93;;;0.20;99.90;;;;;;5021067;28;20223;-45
2024/01/10 11:31:30;;;;;;;20.50;11.07;;;0.10;99.90;;;;;;5024025;28;20207;-43
2024/01/10 11:34:05;;;;;;;27.48;13.48;;;0.10;99.90;;;;;;5023564;28;20187;-47
2024/01/10 11:36:31;;;;;;;19.88;11.32;;;0.20;99.90;;;;;;5023416;28;20196;-46
2024/01/10 11:39:04;;;;;;;23.70;11.07;;;0.20;99.90;;;;;;5020177;28;20196;-46
2024/01/10 11:41:38;;;;;;;21.02;11.05;;;0.20;99.90;;;;;;5023238;28;20269;-45
2024/01/10 11:44:10;;;;;;;19.95;10.93;;;0.20;99.90;;;;;;5023157;28;20200;-46
2024/01/10 11:46:41;;;;;;;23.85;10.43;;;0.20;99.90;;;;;;4991252;28;20192;-45
2024/01/10 11:49:15;;;;;;;25.55;10.68;;;0.20;99.90;;;;;;5023004;28;20228;-44
2024/01/10 11:51:45;;;;;;;18.63;10.27;;;0.30;99.90;;;;;;5022242;28;21344;-42
2024/01/10 11:54:11;;;;;;;23.13;11.48;;;0.30;99.90;;;;;;5001145;28;20250;-45
2024/01/10 11:56:42;;;;;;;20.75;11.00;;;0.30;99.90;;;;;;5017460;28;20198;-47
2024/01/10 11:59:13;;;;;;;21.33;11.30;;;0.30;99.90;;;;;;5019734;28;20196;-43
2024/01/10 12:01:40;;;;;;;23.40;11.80;;;0.40;99.90;;;;;;5014833;28;20190;-47
2024/01/10 12:04:07;;;;;;;21.67;11.43;;;0.40;99.90;;;;;;5023951;28;20188;-45
2024/01/10 12:06:38;;;;;;;21.77;10.77;;;0.50;99.90;;;;;;5023286;28;20703;-46
2024/01/10 12:09:13;;;;;;;21.38;10.80;;;0.50;99.90;;;;;;5023039;28;20259;-46
2024/01/10 12:11:42;;;;;;;21.00;11.13;;;0.50;99.90;;;;;;5003614;28;20176;-43
2024/01/10 12:14:11;;;;;;;21.80;10.93;;;0.60;99.90;;;;;;5023450;28;20191;-49
2024/01/10 12:16:38;;;;;;;22.33;11.48;;;0.60;99.90;;;;;;5023277;28;20183;-54
2024/01/10 12:19:05;;;;;;;23.52;12.20;;;0.60;99.90;;;;;;5022958;28;20199;-43
2024/01/10 12:21:30;;;;;;;19.95;11.00;;;0.60;99.90;;;;;;5023090;28;20192;-44
2024/01/10 12:23:56;;;;;;;22.73;10.90;;;0.70;99.90;;;;;;5023373;28;20253;-41
2024/01/10 12:26:22;;;;;;;21.77;11.77;;;0.70;99.90;;;;;;5022938;28;20637;-51
2024/01/10 12:28:56;;;;;;;21.17;11.07;;;0.70;99.90;;;;;;5017556;28;20263;-45